RKSI/ICN METAR and TAF weather

Enter ICAO airport designator
Station Type Date Time Source
RKSI METAR 2020/09/18 23:00 UTC NOAA

RKSI 182300Z 10003KT 080V140 9999 SCT040 BKN090 21/14 Q1015 NOSIG


Station Type Date Time Source
RKSI Decoded METAR 2020/09/18 23:00 UTC NOAA

Incheon International Airport, Korea, South (RKSI) 37-28N 126-27E
Sep 18, 2020 - 07:00 PM EDT / 2020.09.18 2300 UTC
Wind: from the E (100 degrees) at 3 MPH (3 KT) (direction variable):0
Visibility: greater than 7 mile(s):0
Sky conditions: mostly cloudy
Temperature: 69 F (21 C)
Dew Point: 57 F (14 C)
Relative Humidity: 64%
Pressure (altimeter): 29.97 in. Hg (1015 hPa)
ob: RKSI 182300Z 10003KT 080V140 9999 SCT040 BKN090 21/14 Q1015 NOSIG
cycle: 23

Station Type Date Time Source
RKSI TAF 2020/09/18 19:12 UTC NOAA

TAF
AMD TAF
AMD RKSI 181910Z 1819/1924 26008KT 9999 BKN030 BKN080 TN19/1821Z TX24/1905Z TN17/1921Z
TEMPO 1819/1820 33015KT -TSRA SCT015CB BKN025 OVC080
BECMG 1901/1902 29015G25KT CAVOK
BECMG 1910/1911 32010KT

Example: see airport list